Time;durP1;ratioP1;P1;durP2;ratioP2;P2;SDS_P1;SDS_P2;PMS_P1;PMS_P2;Temp;Humidity;BMP_temperature;BMP_pressure;BME280_temperature;BME280_humidity;BME280_pressure;Samples;Min_cycle;Max_cycle;Signal;HPM_P1;HPM_P2
2024/01/31 00:01:36;;;;;;;8.73;6.00;;;8.10;99.90;;;;;;4850911;29;20440;-71
2024/01/31 00:04:02;;;;;;;6.30;5.47;;;8.00;99.90;;;;;;4849426;29;20501;-72
2024/01/31 00:06:27;;;;;;;10.83;5.20;;;8.00;99.90;;;;;;4848100;29;20469;-68
2024/01/31 00:08:54;;;;;;;9.90;5.27;;;8.00;99.90;;;;;;4847905;29;20502;-70
2024/01/31 00:11:20;;;;;;;8.87;5.90;;;8.00;99.90;;;;;;4847294;29;20244;-68
2024/01/31 00:13:45;;;;;;;9.40;5.20;;;8.00;99.90;;;;;;4846467;29;20430;-70
2024/01/31 00:16:13;;;;;;;7.60;5.73;;;7.90;99.90;;;;;;4846881;29;20256;-70
2024/01/31 00:18:39;;;;;;;13.97;5.77;;;8.00;99.90;;;;;;4848715;29;20243;-70
2024/01/31 00:21:05;;;;;;;10.40;7.10;;;7.90;99.90;;;;;;4849072;29;20430;-67
2024/01/31 00:23:31;;;;;;;8.93;6.17;;;7.90;99.90;;;;;;4846868;29;20426;-69
2024/01/31 00:25:57;;;;;;;9.97;6.57;;;8.00;99.90;;;;;;4846496;29;20213;-66
2024/01/31 00:28:23;;;;;;;13.77;7.63;;;7.90;99.90;;;;;;4845952;29;20236;-70
2024/01/31 00:30:49;;;;;;;11.00;7.33;;;7.90;99.90;;;;;;4846205;29;20466;-70
2024/01/31 00:33:14;;;;;;;12.13;8.30;;;7.90;99.90;;;;;;4850763;29;20219;-67
2024/01/31 00:35:40;;;;;;;11.50;7.67;;;7.90;99.90;;;;;;4846795;29;20213;-67
2024/01/31 00:38:05;;;;;;;11.77;8.00;;;7.90;99.90;;;;;;4853988;29;20617;-69
2024/01/31 00:40:31;;;;;;;10.13;7.00;;;7.90;99.90;;;;;;4840183;29;20213;-67
2024/01/31 00:42:56;;;;;;;14.23;8.67;;;7.80;99.90;;;;;;4870357;29;20453;-69
2024/01/31 00:45:23;;;;;;;11.10;7.20;;;7.80;99.90;;;;;;4854685;29;20228;-67
2024/01/31 00:47:49;;;;;;;11.53;6.90;;;7.80;99.90;;;;;;4856948;29;20234;-69
2024/01/31 00:50:15;;;;;;;8.70;6.97;;;7.80;99.90;;;;;;4857475;29;20478;-66
2024/01/31 00:52:42;;;;;;;11.60;7.53;;;7.80;99.90;;;;;;4851409;29;20272;-67
2024/01/31 00:55:08;;;;;;;12.53;8.17;;;7.80;99.90;;;;;;4847016;29;20197;-67
2024/01/31 00:57:33;;;;;;;11.50;8.27;;;7.80;99.90;;;;;;4845438;29;20544;-69
2024/01/31 01:00:00;;;;;;;12.97;8.57;;;7.80;99.90;;;;;;4846259;29;20449;-69
2024/01/31 01:02:25;;;;;;;10.37;7.80;;;7.80;99.90;;;;;;4845811;29;20201;-66
2024/01/31 01:04:52;;;;;;;13.67;8.57;;;7.80;99.90;;;;;;4850224;29;20740;-68
2024/01/31 01:07:18;;;;;;;12.97;10.20;;;7.70;99.90;;;;;;4847425;29;20311;-66
2024/01/31 01:09:43;;;;;;;14.90;8.80;;;7.70;99.90;;;;;;4845786;29;20505;-70
2024/01/31 01:12:09;;;;;;;14.80;9.70;;;7.70;99.90;;;;;;4846038;29;20196;-68
2024/01/31 01:14:35;;;;;;;16.97;10.87;;;7.60;99.90;;;;;;4844710;29;20540;-67
2024/01/31 01:17:00;;;;;;;15.47;9.93;;;7.60;99.90;;;;;;4846368;29;20273;-69
2024/01/31 01:19:26;;;;;;;16.60;11.90;;;7.60;99.90;;;;;;4848216;29;20307;-68
2024/01/31 01:21:52;;;;;;;15.30;10.57;;;7.50;99.90;;;;;;4850196;29;20216;-66
2024/01/31 01:24:17;;;;;;;14.10;9.93;;;7.50;99.90;;;;;;4845752;29;20426;-70
2024/01/31 01:26:43;;;;;;;15.50;9.90;;;7.50;99.90;;;;;;4845527;29;20223;-67
2024/01/31 01:29:09;;;;;;;15.37;10.50;;;7.50;99.90;;;;;;4845230;29;20193;-66
2024/01/31 01:31:34;;;;;;;14.07;9.93;;;7.50;99.90;;;;;;4845805;29;20201;-68
2024/01/31 01:34:00;;;;;;;18.87;10.77;;;7.50;99.90;;;;;;4846296;29;20233;-71
2024/01/31 01:36:26;;;;;;;15.40;10.23;;;7.50;99.90;;;;;;4846061;29;20312;-71
2024/01/31 01:38:52;;;;;;;16.43;11.83;;;7.50;99.90;;;;;;4846392;29;20560;-68
2024/01/31 01:41:17;;;;;;;14.33;10.30;;;7.40;99.90;;;;;;4846255;29;20505;-66
2024/01/31 01:43:43;;;;;;;17.73;11.77;;;7.40;99.90;;;;;;4846059;29;20625;-68
2024/01/31 01:46:15;;;;;;;20.57;13.20;;;7.40;99.90;;;;;;4843414;29;20217;-69
2024/01/31 01:48:44;;;;;;;20.23;10.83;;;7.30;99.90;;;;;;4843881;29;20229;-66
2024/01/31 01:51:17;;;;;;;22.80;10.73;;;7.40;99.90;;;;;;4846193;29;20901;-67
2024/01/31 01:53:45;;;;;;;13.47;9.83;;;7.30;99.90;;;;;;4846364;29;20441;-66
2024/01/31 01:56:13;;;;;;;15.50;10.77;;;7.30;99.90;;;;;;4843072;29;20450;-69
2024/01/31 01:58:40;;;;;;;17.83;11.13;;;7.30;99.90;;;;;;4846085;29;20505;-68
2024/01/31 02:01:08;;;;;;;19.30;11.97;;;7.30;99.90;;;;;;4846337;29;20461;-66
2024/01/31 02:03:35;;;;;;;17.30;10.30;;;7.20;99.90;;;;;;4849077;29;20462;-67
2024/01/31 02:06:01;;;;;;;17.90;11.30;;;7.30;99.90;;;;;;4846031;29;20457;-67
2024/01/31 02:08:28;;;;;;;15.33;10.43;;;7.20;99.90;;;;;;4846325;29;20494;-68
2024/01/31 02:10:54;;;;;;;16.70;11.80;;;7.20;99.90;;;;;;4845521;29;20480;-68
2024/01/31 02:13:20;;;;;;;22.13;13.70;;;7.30;99.90;;;;;;4846078;29;20909;-67
2024/01/31 02:15:55;;;;;;;17.73;12.07;;;7.30;99.90;;;;;;4845699;29;20450;-67
2024/01/31 02:18:21;;;;;;;18.27;10.87;;;7.30;99.90;;;;;;4847147;29;20592;-68
2024/01/31 02:20:47;;;;;;;18.93;12.20;;;7.20;99.90;;;;;;4845729;29;20422;-68
2024/01/31 02:23:14;;;;;;;18.20;10.50;;;7.20;99.90;;;;;;4845987;29;20434;-68
2024/01/31 02:25:39;;;;;;;15.50;11.17;;;7.20;99.90;;;;;;4860329;29;20229;-68
2024/01/31 02:28:05;;;;;;;19.03;11.40;;;7.30;99.90;;;;;;4845334;29;20738;-68
2024/01/31 02:30:31;;;;;;;19.13;12.70;;;7.20;99.90;;;;;;4845351;29;20223;-67
2024/01/31 02:32:56;;;;;;;21.10;12.97;;;7.30;99.90;;;;;;4847483;29;20994;-67
2024/01/31 02:35:23;;;;;;;18.80;12.60;;;7.20;99.90;;;;;;4845803;29;20677;-67
2024/01/31 02:37:49;;;;;;;19.53;13.27;;;7.30;99.90;;;;;;4845718;29;20284;-66
2024/01/31 02:40:15;;;;;;;20.33;13.97;;;7.30;99.90;;;;;;4845853;29;20497;-68
2024/01/31 02:42:41;;;;;;;18.30;12.80;;;7.30;99.90;;;;;;4845448;29;20201;-67
2024/01/31 02:45:07;;;;;;;21.10;14.47;;;7.30;99.90;;;;;;4845774;29;20465;-67
2024/01/31 02:47:35;;;;;;;21.73;14.33;;;7.30;99.90;;;;;;4846457;29;20490;-67
2024/01/31 02:50:03;;;;;;;24.93;13.60;;;7.30;99.90;;;;;;4845827;29;20389;-66
2024/01/31 02:52:28;;;;;;;22.63;15.10;;;7.30;99.90;;;;;;4845791;29;20755;-67
2024/01/31 02:54:54;;;;;;;20.73;14.63;;;7.30;99.90;;;;;;4845484;29;20430;-67
2024/01/31 02:57:20;;;;;;;23.77;16.00;;;7.30;99.90;;;;;;4845267;29;20316;-66
2024/01/31 02:59:45;;;;;;;20.37;13.10;;;7.30;99.90;;;;;;4845365;29;20678;-68
2024/01/31 03:02:13;;;;;;;17.90;12.27;;;7.30;99.90;;;;;;4844901;29;20193;-69
2024/01/31 03:04:39;;;;;;;19.80;14.10;;;7.30;99.90;;;;;;4850285;29;20236;-65
2024/01/31 03:07:04;;;;;;;22.90;15.57;;;7.30;99.90;;;;;;4845055;29;20493;-67
2024/01/31 03:09:30;;;;;;;21.60;13.93;;;7.30;99.90;;;;;;4844253;29;20256;-66
2024/01/31 03:11:55;;;;;;;23.70;16.00;;;7.30;99.90;;;;;;4844630;29;20185;-67
2024/01/31 03:14:21;;;;;;;22.20;14.83;;;7.30;99.90;;;;;;4845686;29;20197;-68
2024/01/31 03:16:47;;;;;;;24.03;16.33;;;7.30;99.90;;;;;;4844490;29;20217;-66
2024/01/31 03:19:13;;;;;;;23.93;15.77;;;7.30;99.90;;;;;;4848920;29;20502;-67
2024/01/31 03:21:38;;;;;;;21.50;13.87;;;7.30;99.90;;;;;;4845783;29;20200;-68
2024/01/31 03:24:04;;;;;;;22.57;15.83;;;7.30;99.90;;;;;;4844322;29;20438;-67
2024/01/31 03:26:30;;;;;;;27.50;15.93;;;7.30;99.90;;;;;;4844330;29;20723;-66
2024/01/31 03:28:56;;;;;;;24.57;15.90;;;7.30;99.90;;;;;;4844259;29;20438;-67
2024/01/31 03:31:21;;;;;;;25.30;16.23;;;7.20;99.90;;;;;;4845579;29;20433;-67
2024/01/31 03:33:47;;;;;;;23.00;15.90;;;7.20;99.90;;;;;;4849191;29;20205;-69
2024/01/31 03:36:12;;;;;;;25.17;15.73;;;7.20;99.90;;;;;;4844439;29;20223;-67
2024/01/31 03:38:39;;;;;;;28.00;15.87;;;7.20;99.90;;;;;;4844533;29;20292;-68
2024/01/31 03:41:08;;;;;;;26.37;16.57;;;7.20;99.90;;;;;;4844399;29;20208;-68
2024/01/31 03:43:34;;;;;;;25.17;14.70;;;7.20;99.90;;;;;;4844780;29;20449;-67
2024/01/31 03:46:02;;;;;;;25.77;16.20;;;7.20;99.90;;;;;;4844874;29;20454;-67
2024/01/31 03:48:28;;;;;;;29.30;17.30;;;7.20;99.90;;;;;;4848185;29;20236;-67
2024/01/31 03:50:54;;;;;;;28.30;16.80;;;7.20;99.90;;;;;;4844015;29;20499;-66
2024/01/31 03:53:19;;;;;;;22.80;16.70;;;7.20;99.90;;;;;;4844143;29;20246;-68
2024/01/31 03:55:46;;;;;;;25.00;15.37;;;7.10;99.90;;;;;;4842856;29;20205;-67
2024/01/31 03:58:11;;;;;;;21.70;13.93;;;7.10;99.90;;;;;;4842935;29;20185;-67
2024/01/31 04:00:37;;;;;;;28.93;17.93;;;7.20;99.90;;;;;;4844266;29;20453;-67
2024/01/31 04:03:02;;;;;;;32.17;16.80;;;7.10;99.90;;;;;;4846744;29;20211;-67
2024/01/31 04:05:28;;;;;;;26.53;16.20;;;7.10;99.90;;;;;;4843477;29;20235;-67
2024/01/31 04:07:54;;;;;;;27.73;14.90;;;7.10;99.90;;;;;;4844574;29;20503;-69
2024/01/31 04:10:20;;;;;;;20.90;14.00;;;7.10;99.90;;;;;;4841481;29;20201;-66
2024/01/31 04:12:46;;;;;;;22.07;15.97;;;7.10;99.90;;;;;;4843595;29;20694;-66
2024/01/31 04:15:11;;;;;;;21.83;13.97;;;7.10;99.90;;;;;;4843416;29;20579;-68
2024/01/31 04:17:37;;;;;;;26.00;14.73;;;7.10;99.90;;;;;;4844802;29;20197;-67
2024/01/31 04:20:03;;;;;;;25.80;16.00;;;7.10;99.90;;;;;;4847557;29;20465;-69
2024/01/31 04:22:28;;;;;;;28.50;16.40;;;7.10;99.90;;;;;;4845271;29;20212;-67
2024/01/31 04:24:54;;;;;;;24.30;15.77;;;7.10;99.90;;;;;;4843614;29;20422;-66
2024/01/31 04:27:19;;;;;;;30.20;17.60;;;7.10;99.90;;;;;;4843214;29;20316;-67
2024/01/31 04:29:45;;;;;;;29.20;18.20;;;7.10;99.90;;;;;;4843461;29;20251;-66
2024/01/31 04:32:11;;;;;;;34.20;19.20;;;7.10;99.90;;;;;;4843219;29;20216;-70
2024/01/31 04:34:39;;;;;;;26.27;16.57;;;7.00;99.90;;;;;;4844665;29;20205;-67
2024/01/31 04:37:05;;;;;;;31.23;18.73;;;7.00;99.90;;;;;;4843488;29;20650;-68
2024/01/31 04:39:30;;;;;;;28.43;18.23;;;6.90;99.90;;;;;;4843628;29;20426;-66
2024/01/31 04:41:56;;;;;;;32.30;18.93;;;6.90;99.90;;;;;;4843596;29;20201;-69
2024/01/31 04:44:21;;;;;;;35.47;19.77;;;6.90;99.90;;;;;;4843878;29;20193;-68
2024/01/31 04:46:47;;;;;;;30.07;19.17;;;6.80;99.90;;;;;;4843590;29;20283;-68
2024/01/31 04:49:13;;;;;;;24.33;16.17;;;6.80;99.90;;;;;;4845404;29;20200;-68
2024/01/31 04:51:42;;;;;;;32.93;19.43;;;6.80;99.90;;;;;;4845712;29;20209;-69
2024/01/31 04:54:07;;;;;;;30.00;17.97;;;6.80;99.90;;;;;;4845839;29;20236;-67
2024/01/31 04:56:34;;;;;;;34.90;18.10;;;6.80;99.90;;;;;;4843488;29;20509;-66
2024/01/31 04:58:59;;;;;;;28.13;15.77;;;6.80;99.90;;;;;;4843240;29;20714;-67
2024/01/31 05:01:25;;;;;;;30.77;15.23;;;6.80;99.90;;;;;;4844413;29;20418;-68
2024/01/31 05:03:50;;;;;;;19.90;11.93;;;6.80;99.90;;;;;;4846315;29;20221;-66
2024/01/31 05:06:16;;;;;;;17.80;10.33;;;6.70;99.90;;;;;;4845851;29;20240;-69
2024/01/31 05:08:41;;;;;;;14.60;9.10;;;6.60;99.90;;;;;;4845728;29;20221;-68
2024/01/31 05:11:07;;;;;;;16.03;9.50;;;6.60;99.90;;;;;;4846400;29;20199;-67
2024/01/31 05:13:32;;;;;;;13.20;8.80;;;6.50;99.90;;;;;;4844764;29;20197;-67
2024/01/31 05:15:58;;;;;;;15.10;10.00;;;6.40;99.90;;;;;;4845663;29;20217;-66
2024/01/31 05:18:23;;;;;;;15.37;8.07;;;6.40;99.90;;;;;;4846842;29;20205;-67
2024/01/31 05:20:50;;;;;;;18.93;11.03;;;6.30;99.90;;;;;;4846922;29;20588;-67
2024/01/31 05:23:16;;;;;;;16.87;9.77;;;6.30;99.90;;;;;;4845706;29;20199;-66
2024/01/31 05:25:42;;;;;;;16.00;10.30;;;6.30;99.90;;;;;;4847866;29;20525;-68
2024/01/31 05:28:07;;;;;;;18.23;10.53;;;6.20;99.90;;;;;;4847012;29;20205;-69
2024/01/31 05:30:33;;;;;;;21.50;10.87;;;6.20;99.90;;;;;;4846545;29;21402;-67
2024/01/31 05:32:58;;;;;;;18.67;10.00;;;6.20;99.90;;;;;;4850919;29;20181;-69
2024/01/31 05:35:25;;;;;;;18.57;10.10;;;6.20;99.90;;;;;;4849747;29;20220;-68
2024/01/31 05:37:50;;;;;;;16.40;10.90;;;6.10;99.90;;;;;;4849601;29;20208;-68
2024/01/31 05:40:16;;;;;;;18.33;10.37;;;6.10;99.90;;;;;;4850128;29;20430;-67
2024/01/31 05:42:43;;;;;;;17.03;10.40;;;6.10;99.90;;;;;;4851021;29;20467;-67
2024/01/31 05:45:09;;;;;;;14.93;8.30;;;6.10;99.90;;;;;;4849692;29;20430;-67
2024/01/31 05:47:35;;;;;;;14.93;7.60;;;6.10;99.90;;;;;;4849278;29;20516;-68
2024/01/31 05:50:01;;;;;;;19.10;7.83;;;6.10;99.90;;;;;;4858496;29;20463;-69
2024/01/31 05:52:27;;;;;;;12.80;7.27;;;6.10;99.90;;;;;;4852135;29;20505;-68
2024/01/31 05:54:52;;;;;;;10.90;6.90;;;6.10;99.90;;;;;;4851549;29;20531;-69
2024/01/31 05:57:18;;;;;;;8.53;5.27;;;6.10;99.90;;;;;;4852907;29;20213;-68
2024/01/31 05:59:44;;;;;;;10.30;5.77;;;6.10;99.90;;;;;;4853463;29;20193;-66
2024/01/31 06:02:09;;;;;;;13.10;6.47;;;6.10;99.90;;;;;;4851059;29;20291;-68
2024/01/31 06:04:35;;;;;;;15.90;8.17;;;6.10;99.90;;;;;;4856710;29;20237;-66
2024/01/31 06:07:00;;;;;;;15.87;9.00;;;6.10;99.90;;;;;;4852389;29;20221;-68
2024/01/31 06:09:26;;;;;;;12.13;6.97;;;6.10;99.90;;;;;;4852664;29;20185;-68
2024/01/31 06:11:52;;;;;;;11.53;7.63;;;6.10;99.90;;;;;;4850646;29;20189;-69
2024/01/31 06:14:17;;;;;;;27.87;19.43;;;6.10;99.90;;;;;;4855986;29;20268;-69
2024/01/31 06:16:43;;;;;;;26.97;13.20;;;6.20;99.90;;;;;;4856190;29;20212;-70
2024/01/31 06:19:08;;;;;;;25.80;14.10;;;6.20;99.90;;;;;;4858746;29;20683;-68
2024/01/31 06:21:34;;;;;;;30.50;14.63;;;6.20;99.90;;;;;;4857558;29;20215;-70
2024/01/31 06:24:00;;;;;;;22.67;12.47;;;6.20;99.90;;;;;;4857400;29;20215;-71
2024/01/31 06:26:28;;;;;;;19.60;10.50;;;6.10;99.90;;;;;;4856753;29;20225;-70
2024/01/31 06:28:54;;;;;;;22.33;9.80;;;6.10;99.90;;;;;;4853379;29;20201;-71
2024/01/31 06:31:27;;;;;;;20.80;11.70;;;6.00;99.90;;;;;;4855015;29;20422;-70
2024/01/31 06:33:53;;;;;;;22.83;10.13;;;6.10;99.90;;;;;;4855741;29;20919;-69
2024/01/31 06:36:20;;;;;;;17.37;10.20;;;6.10;99.90;;;;;;4849820;29;20450;-70
2024/01/31 06:38:46;;;;;;;18.17;9.20;;;6.10;99.90;;;;;;4849415;29;20204;-74
2024/01/31 06:41:14;;;;;;;18.23;9.70;;;6.10;99.90;;;;;;4849961;29;20422;-71
2024/01/31 06:43:39;;;;;;;14.00;8.17;;;6.10;99.90;;;;;;4848723;29;20462;-70
2024/01/31 06:46:05;;;;;;;13.80;9.10;;;6.10;99.90;;;;;;4848223;29;20964;-71
2024/01/31 06:48:31;;;;;;;17.20;8.00;;;6.10;99.90;;;;;;4850628;29;20221;-71
2024/01/31 06:50:56;;;;;;;13.33;7.83;;;6.10;99.90;;;;;;4845426;29;20240;-69
2024/01/31 06:53:22;;;;;;;16.57;7.53;;;6.10;99.90;;;;;;4849973;29;20196;-71
2024/01/31 06:55:47;;;;;;;16.77;9.40;;;6.10;99.90;;;;;;4850593;29;20220;-69
2024/01/31 06:58:13;;;;;;;21.20;10.00;;;6.20;99.90;;;;;;4850603;29;20676;-70
2024/01/31 07:00:39;;;;;;;16.00;9.30;;;6.10;99.90;;;;;;4850365;29;20595;-70
2024/01/31 07:03:04;;;;;;;16.70;8.70;;;6.20;99.90;;;;;;4851330;29;20283;-69
2024/01/31 07:05:30;;;;;;;16.43;7.60;;;6.20;99.90;;;;;;4849573;29;20496;-69
2024/01/31 07:07:56;;;;;;;24.27;10.63;;;6.20;99.90;;;;;;4864019;29;20646;-71
2024/01/31 07:10:21;;;;;;;23.33;10.90;;;6.30;99.90;;;;;;4851442;29;20190;-70
2024/01/31 07:12:47;;;;;;;24.33;10.77;;;6.20;99.90;;;;;;4850757;29;20197;-70
2024/01/31 07:15:14;;;;;;;15.93;9.87;;;6.30;99.90;;;;;;4851002;29;20272;-71
2024/01/31 07:17:39;;;;;;;16.30;8.80;;;6.30;99.90;;;;;;4867904;29;20265;-69
2024/01/31 07:20:06;;;;;;;16.23;8.70;;;6.30;99.90;;;;;;4852866;29;20413;-72
2024/01/31 07:22:32;;;;;;;14.63;8.40;;;6.30;99.90;;;;;;4849635;29;20193;-69
2024/01/31 07:24:57;;;;;;;13.80;7.83;;;6.30;99.90;;;;;;4848227;29;20518;-69
2024/01/31 07:27:24;;;;;;;14.20;7.00;;;6.30;99.90;;;;;;4849094;29;20260;-70
2024/01/31 07:29:50;;;;;;;13.30;7.57;;;6.40;99.90;;;;;;4845189;29;20190;-71
2024/01/31 07:32:15;;;;;;;10.10;5.80;;;6.40;99.90;;;;;;4849482;29;20437;-70
2024/01/31 07:34:41;;;;;;;11.83;6.37;;;6.40;99.90;;;;;;4851171;29;20280;-72
2024/01/31 07:37:08;;;;;;;10.73;7.03;;;6.40;99.90;;;;;;4849430;29;20216;-72
2024/01/31 07:39:33;;;;;;;11.30;6.20;;;6.50;99.90;;;;;;4850749;29;20201;-71
2024/01/31 07:41:59;;;;;;;12.43;6.50;;;6.40;99.90;;;;;;4850514;29;20474;-72
2024/01/31 07:44:24;;;;;;;10.07;5.90;;;6.40;99.90;;;;;;4849493;29;20213;-71
2024/01/31 07:46:50;;;;;;;12.47;8.30;;;6.40;99.90;;;;;;4849740;29;20251;-72
2024/01/31 07:49:15;;;;;;;14.23;7.70;;;6.50;99.90;;;;;;4851539;29;20204;-72
2024/01/31 07:51:42;;;;;;;12.17;8.53;;;6.50;99.90;;;;;;4850034;29;20225;-71
2024/01/31 07:54:08;;;;;;;13.30;7.50;;;6.50;99.90;;;;;;4848288;29;20275;-74
2024/01/31 07:56:33;;;;;;;11.60;6.60;;;6.50;99.90;;;;;;4851630;29;20508;-72
2024/01/31 07:58:59;;;;;;;15.43;6.90;;;6.50;99.90;;;;;;4853624;29;20252;-73
2024/01/31 08:01:24;;;;;;;11.47;6.80;;;6.50;99.90;;;;;;4849388;29;20619;-71
2024/01/31 08:03:50;;;;;;;9.10;6.20;;;6.50;99.90;;;;;;4846178;29;20315;-70
2024/01/31 08:06:15;;;;;;;10.67;6.20;;;6.60;99.90;;;;;;4837623;29;20249;-70
2024/01/31 08:08:45;;;;;;;8.70;5.50;;;6.60;99.90;;;;;;4850924;29;20232;-71
2024/01/31 08:11:14;;;;;;;11.83;6.80;;;6.60;99.90;;;;;;4851544;29;20273;-71
2024/01/31 08:13:39;;;;;;;9.17;6.40;;;6.80;99.90;;;;;;4851601;29;20410;-72
2024/01/31 08:16:10;;;;;;;12.67;8.47;;;6.80;99.90;;;;;;4842213;29;20980;-71
2024/01/31 08:18:36;;;;;;;11.87;8.27;;;6.90;99.90;;;;;;4845355;29;20190;-70
2024/01/31 08:21:02;;;;;;;14.80;8.60;;;6.90;99.90;;;;;;4866247;29;20499;-72
2024/01/31 08:23:28;;;;;;;10.93;7.90;;;7.00;99.90;;;;;;4854575;29;20208;-71
2024/01/31 08:25:55;;;;;;;12.43;8.17;;;7.10;99.90;;;;;;4851489;29;20892;-72
2024/01/31 08:28:21;;;;;;;14.17;9.47;;;7.10;99.90;;;;;;4850105;29;20201;-71
2024/01/31 08:30:46;;;;;;;16.30;10.50;;;7.20;99.90;;;;;;4850990;29;20542;-72
2024/01/31 08:33:12;;;;;;;19.90;11.93;;;7.20;99.90;;;;;;4848256;29;20200;-70
2024/01/31 08:35:37;;;;;;;16.33;10.60;;;7.30;99.90;;;;;;4849086;29;20209;-72
2024/01/31 08:38:03;;;;;;;16.93;10.30;;;7.30;99.90;;;;;;4847764;29;20349;-70
2024/01/31 08:40:29;;;;;;;18.37;11.67;;;7.30;99.90;;;;;;4848705;29;20720;-70
2024/01/31 08:42:58;;;;;;;15.30;11.07;;;7.30;99.90;;;;;;4847769;29;20260;-71
2024/01/31 08:45:24;;;;;;;17.23;11.57;;;7.40;99.90;;;;;;4848716;29;20256;-71
2024/01/31 08:47:50;;;;;;;16.83;10.80;;;7.40;99.90;;;;;;4849116;29;20553;-73
2024/01/31 08:50:15;;;;;;;17.47;11.20;;;7.40;99.90;;;;;;4854099;29;20473;-70
2024/01/31 08:52:41;;;;;;;14.50;9.27;;;7.40;99.90;;;;;;4849507;29;20209;-70
2024/01/31 08:55:07;;;;;;;19.90;12.53;;;7.40;99.90;;;;;;4864240;29;20220;-73
2024/01/31 08:57:33;;;;;;;21.27;14.23;;;7.50;99.90;;;;;;4849188;29;20201;-71
2024/01/31 08:59:58;;;;;;;22.27;14.80;;;7.50;99.90;;;;;;4849251;29;20418;-71
2024/01/31 09:02:24;;;;;;;29.77;15.17;;;7.50;99.90;;;;;;4848683;29;20193;-74
2024/01/31 09:04:49;;;;;;;24.80;15.13;;;7.50;99.90;;;;;;4849619;29;20221;-71
2024/01/31 09:07:15;;;;;;;22.83;13.03;;;7.50;99.90;;;;;;4848439;29;20244;-71
2024/01/31 09:09:40;;;;;;;24.77;15.90;;;7.50;99.90;;;;;;4848994;29;20262;-69
2024/01/31 09:12:07;;;;;;;22.17;14.50;;;7.60;99.90;;;;;;4848012;29;20202;-71
2024/01/31 09:14:33;;;;;;;20.37;13.70;;;7.60;99.90;;;;;;4853402;29;20196;-70
2024/01/31 09:16:59;;;;;;;28.60;16.90;;;7.50;99.90;;;;;;4861540;29;20512;-69
2024/01/31 09:19:25;;;;;;;28.50;16.67;;;7.60;99.90;;;;;;4846579;29;20461;-71
2024/01/31 09:21:51;;;;;;;23.23;15.03;;;7.60;99.90;;;;;;4855165;29;20212;-72
2024/01/31 09:24:16;;;;;;;27.30;16.20;;;7.60;99.90;;;;;;4862311;29;20584;-71
2024/01/31 09:26:42;;;;;;;27.00;15.93;;;7.60;99.90;;;;;;4848776;29;20492;-71
2024/01/31 09:29:07;;;;;;;24.43;15.53;;;7.70;99.90;;;;;;4849000;29;20253;-69
2024/01/31 09:31:33;;;;;;;25.50;16.33;;;7.70;99.90;;;;;;4849734;29;20204;-69
2024/01/31 09:33:59;;;;;;;25.70;15.40;;;7.70;99.90;;;;;;4848764;29;20276;-73
2024/01/31 09:36:25;;;;;;;23.73;15.07;;;7.60;99.90;;;;;;4850365;29;20312;-73
2024/01/31 09:38:51;;;;;;;20.37;13.07;;;7.70;99.90;;;;;;4848780;29;20204;-72
2024/01/31 09:41:17;;;;;;;21.93;14.57;;;7.70;99.90;;;;;;4848546;29;20430;-69
2024/01/31 09:43:43;;;;;;;19.67;12.73;;;7.70;99.90;;;;;;4849345;29;20264;-73
2024/01/31 09:46:09;;;;;;;18.10;11.63;;;7.70;99.90;;;;;;4849865;29;20581;-70
2024/01/31 09:48:36;;;;;;;21.83;13.90;;;7.70;99.90;;;;;;4848673;29;20521;-73
2024/01/31 09:51:02;;;;;;;19.73;13.50;;;7.80;99.90;;;;;;4849117;29;20563;-69
2024/01/31 09:53:33;;;;;;;22.07;13.03;;;7.90;99.90;;;;;;4866027;29;20434;-75
2024/01/31 09:55:59;;;;;;;20.37;12.60;;;7.90;99.90;;;;;;4852304;29;20931;-72
2024/01/31 09:58:26;;;;;;;17.53;11.10;;;8.00;99.90;;;;;;4865891;29;20467;-73
2024/01/31 10:00:52;;;;;;;17.77;11.95;;;8.00;99.90;;;;;;4850290;29;20457;-71
2024/01/31 10:03:18;;;;;;;14.00;9.57;;;8.00;99.90;;;;;;4850290;29;20205;-72
2024/01/31 10:05:44;;;;;;;16.33;10.00;;;8.00;99.90;;;;;;4848700;29;20526;-71
2024/01/31 10:08:10;;;;;;;17.60;11.83;;;8.10;99.90;;;;;;4850148;29;20227;-71
2024/01/31 10:10:39;;;;;;;19.47;12.17;;;8.10;99.90;;;;;;4851175;29;20932;-71
2024/01/31 10:13:09;;;;;;;20.10;12.00;;;8.10;99.90;;;;;;4850735;29;20543;-72
2024/01/31 10:15:35;;;;;;;18.10;11.93;;;8.10;99.90;;;;;;4846807;29;20449;-72
2024/01/31 10:18:00;;;;;;;22.10;13.07;;;8.10;99.90;;;;;;4868107;29;20433;-72
2024/01/31 10:20:26;;;;;;;19.93;12.80;;;8.10;99.90;;;;;;4870059;29;20203;-73
2024/01/31 10:22:52;;;;;;;18.20;12.10;;;8.10;99.90;;;;;;4870714;29;20256;-73
2024/01/31 10:25:18;;;;;;;19.00;11.90;;;8.20;99.90;;;;;;4851432;29;20430;-74
2024/01/31 10:27:49;;;;;;;23.30;14.07;;;8.20;99.90;;;;;;4855747;29;20359;-72
2024/01/31 10:30:15;;;;;;;19.70;12.47;;;8.20;99.90;;;;;;4865429;29;20484;-73
2024/01/31 10:32:42;;;;;;;24.50;14.00;;;8.20;99.90;;;;;;4850501;29;20406;-73
2024/01/31 10:35:08;;;;;;;16.23;11.70;;;8.30;99.90;;;;;;4852086;29;20429;-71
2024/01/31 10:37:37;;;;;;;17.30;12.17;;;8.30;99.90;;;;;;4854200;29;20429;-71
2024/01/31 10:40:06;;;;;;;18.53;12.17;;;8.40;99.90;;;;;;4853638;29;20445;-70
2024/01/31 10:42:31;;;;;;;16.10;11.40;;;8.50;99.90;;;;;;4868210;29;20437;-73
2024/01/31 10:44:58;;;;;;;17.43;11.27;;;8.50;99.90;;;;;;4840469;29;20418;-74
2024/01/31 10:47:24;;;;;;;16.57;11.33;;;8.60;99.90;;;;;;4870515;29;20259;-74
2024/01/31 10:49:50;;;;;;;12.50;8.87;;;8.60;99.90;;;;;;4869271;29;20426;-72
2024/01/31 10:52:20;;;;;;;13.27;9.03;;;8.60;99.90;;;;;;4869097;29;20722;-72
2024/01/31 10:55:05;;;;;;;11.03;8.50;;;8.60;99.90;;;;;;4851413;29;20200;-74
2024/01/31 10:57:31;;;;;;;14.40;9.00;;;8.70;99.90;;;;;;4852964;29;20701;-73
2024/01/31 10:59:58;;;;;;;12.63;8.67;;;8.80;99.90;;;;;;4852110;29;20935;-72
2024/01/31 11:02:31;;;;;;;11.10;7.27;;;8.90;99.90;;;;;;4851428;29;20426;-71
2024/01/31 11:05:01;;;;;;;11.60;8.20;;;8.90;99.90;;;;;;4851908;29;20501;-73
2024/01/31 11:07:29;;;;;;;9.70;6.97;;;8.90;99.90;;;;;;4854156;29;20481;-73
2024/01/31 11:09:56;;;;;;;9.00;6.40;;;9.00;99.90;;;;;;4852422;29;20590;-74
2024/01/31 11:12:22;;;;;;;11.70;6.37;;;9.10;99.90;;;;;;4856194;29;20433;-72
2024/01/31 11:14:50;;;;;;;10.30;6.77;;;9.20;99.90;;;;;;4854734;29;20438;-71
2024/01/31 11:17:19;;;;;;;8.40;6.40;;;9.20;99.90;;;;;;4849581;29;20224;-74
2024/01/31 11:19:53;;;;;;;6.07;4.90;;;9.30;99.90;;;;;;4851003;29;20463;-70
2024/01/31 11:22:19;;;;;;;12.53;7.10;;;9.30;99.90;;;;;;4851757;29;20430;-71
2024/01/31 11:24:47;;;;;;;6.53;5.80;;;9.30;99.90;;;;;;4852529;29;20414;-72
2024/01/31 11:27:14;;;;;;;7.13;5.10;;;9.30;99.90;;;;;;4852950;29;20691;-73
2024/01/31 11:29:42;;;;;;;6.53;5.30;;;9.30;99.90;;;;;;4865201;29;20435;-73
2024/01/31 11:32:09;;;;;;;10.50;6.67;;;9.40;99.90;;;;;;4852489;29;20625;-71
2024/01/31 11:34:37;;;;;;;8.10;5.37;;;9.40;99.90;;;;;;4850691;29;20673;-74
2024/01/31 11:37:03;;;;;;;7.93;5.80;;;9.50;99.90;;;;;;4854330;29;20442;-72
2024/01/31 11:39:29;;;;;;;7.33;5.30;;;9.40;99.90;;;;;;4854012;29;20453;-71
2024/01/31 11:41:55;;;;;;;5.53;4.63;;;9.50;99.90;;;;;;4868601;29;20204;-72
2024/01/31 11:44:21;;;;;;;5.80;4.47;;;9.50;99.90;;;;;;4872088;29;20488;-72
2024/01/31 11:46:47;;;;;;;5.03;4.50;;;9.60;99.90;;;;;;4871317;29;20501;-72
2024/01/31 11:49:12;;;;;;;8.87;5.10;;;9.60;99.90;;;;;;4856904;29;20446;-72
2024/01/31 11:51:38;;;;;;;6.43;5.30;;;9.60;99.90;;;;;;4872617;29;20238;-71
2024/01/31 11:54:04;;;;;;;6.03;5.00;;;9.70;99.90;;;;;;4856535;29;20204;-74
2024/01/31 11:56:30;;;;;;;5.67;4.50;;;9.80;99.50;;;;;;4853056;29;20208;-72
2024/01/31 11:58:59;;;;;;;6.20;5.40;;;9.80;99.10;;;;;;4852369;29;20189;-74
2024/01/31 12:01:26;;;;;;;10.23;6.93;;;9.80;97.60;;;;;;4849793;29;20442;-72
2024/01/31 12:03:51;;;;;;;8.90;6.33;;;9.80;95.50;;;;;;4867603;29;20802;-72
2024/01/31 12:06:20;;;;;;;6.57;5.27;;;9.70;93.20;;;;;;4852035;29;20551;-74
2024/01/31 12:08:48;;;;;;;6.83;5.73;;;9.60;93.90;;;;;;4852699;29;20217;-74
2024/01/31 12:11:14;;;;;;;7.23;4.70;;;9.50;93.50;;;;;;4853435;29;20471;-74
2024/01/31 12:13:40;;;;;;;12.90;8.83;;;9.50;93.00;;;;;;4853521;29;20439;-72
2024/01/31 12:16:10;;;;;;;9.93;6.37;;;9.40;91.90;;;;;;4852919;29;20481;-73
2024/01/31 12:18:35;;;;;;;7.87;5.67;;;9.30;91.90;;;;;;4850810;29;20605;-73
2024/01/31 12:21:05;;;;;;;6.13;5.10;;;9.20;91.30;;;;;;4855748;29;20517;-74
2024/01/31 12:23:31;;;;;;;6.67;5.20;;;9.20;91.80;;;;;;4852007;29;20208;-70
2024/01/31 12:25:58;;;;;;;6.20;5.43;;;9.20;92.40;;;;;;4835407;29;20445;-75
2024/01/31 12:28:24;;;;;;;4.90;3.90;;;9.10;91.00;;;;;;4852870;29;20530;-72
2024/01/31 12:30:51;;;;;;;4.17;3.77;;;9.10;91.20;;;;;;4851434;29;20803;-74
2024/01/31 12:33:17;;;;;;;6.23;4.40;;;9.20;91.40;;;;;;4848253;29;20878;-71
2024/01/31 12:35:43;;;;;;;5.20;3.93;;;9.20;91.30;;;;;;4851072;29;20454;-73
2024/01/31 12:38:10;;;;;;;3.60;3.00;;;9.30;91.20;;;;;;4865349;29;20517;-72